x

La Perouse Bank (46206) Wave Buoy

4:00 - Fri 19th Sep 2014 All times are PDT. -7 hours from GMT.

  • Sig Wave height 7.2ft
  • Peak Period 10s
  • Wind
    2mph, 4mph gusts
  • Sea Temp 54°f
  • Aire Temp 57°f
  • Sea Pressure 1020.5mb
  • La Perouse Bank
  • La Perouse Bank

More Historic Weather Station data

Upgrade to MSW Pro to gain access to the past 30 days of data for over 8000 Wavebouys and Weather Stations around the globe.

Join Pro

Comparision Forecast

View Surf forecast
   
vie 09/19 4:00 7ft 10s 2 4 mph 1020.5mb 54f 57f
3:00 7ft 10s 4 7 mph 1020.2mb 55f 56f
2:00 6ft 10s  -  2 mph 1019.8mb 55f 55f
1:00 6ft 9s 7
mph
1019.6mb 55f 55f
12:00 6ft 9s 4
mph
1019.1mb 54f 55f
11:00 6.5ft 10s 7 9 mph 1018.5mb 53f 55f
10:00 6ft 9s 9
mph
1017.6mb 53f 55f
9:00 6ft 9s 7 9 mph 1016.5mb 53f 55f
8:00 6ft 10s 4 7 mph 1015.6mb 53f 54f
7:00 6ft 9s 4 7 mph 1015mb 54f 55f
6:00 5ft 17s 4 7 mph 1014.3mb 54f 57f
5:00 4.5ft 16s 11 13 mph 1014.2mb 54f 56f
4:00 4.5ft 17s 13 18 mph 1013.9mb 54f 56f
3:00 4.5ft 17s 13 18 mph 1013.9mb 55f 56f
2:00 5ft 17s 13 16 mph 1014mb 55f 56f
1:00 4.5ft 16s 11 13 mph 1013.9mb 55f 57f
12:00 5ft 17s 9
mph
1013.8mb 56f 57f
jue 09/18 11:00 5ft 9s 9 11 mph 1013.9mb 55f 57f
10:00 5ft 10s 9
mph
1013.3mb 55f 57f
9:00 5ft 17s 7 9 mph 1013.2mb 55f 57f
8:00 5ft 9s 4 7 mph 1012.5mb 55f 57f
7:00 5ft 9s 4 7 mph 1011.6mb 55f 57f
6:00 5ft 17s 7
mph
1011.5mb 55f 57f
5:00 5ft 17s 4
mph
1011.2mb 56f 56f
4:00 5ft 17s 2 4 mph 1011.1mb 55f 57f
3:00 4.5ft 10s 4
mph
1010.6mb 54f 56f
2:00 4.5ft 18s 4
mph
1010.3mb 54f 56f
1:00 4.5ft 10s 7
mph
1009.8mb 53f 55f
12:00 4.5ft 17s 4 7 mph 1009.3mb 53f 55f
11:00 4.5ft 11s 7 9 mph 1008.7mb 54f 56f
10:00 5ft 10s 9 11 mph 1008.2mb 55f 56f
9:00 4.5ft 11s 11 16 mph 1007.8mb 55f 56f
8:00 5ft 18s 13 16 mph 1007.3mb 55f 56f
7:00 5ft 18s 9 11 mph 1007mb 55f 56f
6:00 4.5ft 18s 9
mph
1006.9mb 53f 56f
5:00 4.5ft 12s 7 9 mph 1007.2mb 53f 55f
4:00 4.5ft 12s 4 7 mph 1007.4mb 53f 55f
3:00 5ft 11s 7 9 mph 1007.3mb 53f 55f
2:00 5ft 12s 4 7 mph 1007.5mb 53f 55f
1:00 5.5ft 11s 2 4 mph 1007.5mb 53f 55f
12:00 5ft 18s 2 4 mph 1007.3mb 52f 56f
mié 09/17 11:00 5ft 12s 4 7 mph 1007.8mb 53f 55f
10:00 5.5ft 11s 4
mph
1007.8mb 53f 55f
9:00 5ft 12s 2 4 mph 1007.8mb 53f 55f
8:00 5.5ft 12s 2 4 mph 1007.5mb 53f 54f
7:00 5ft 12s 2 4 mph 1007.6mb 54f 55f
6:00 5.5ft 12s 2 4 mph 1008mb 54f 56f
5:00 5ft 13s 2 4 mph 1008.3mb 53f 56f
4:00 5.5ft 10s 2 4 mph 1008.2mb 54f 56f
3:00 5ft 13s 2 4 mph 1008.2mb 54f 56f
2:00 5ft 13s 2 4 mph 1008.8mb 55f 56f
1:00 5ft 12s 2 4 mph 1009mb 55f 56f
12:00 5ft 13s 4
mph
1009.1mb 56f 56f
11:00 6ft 13s 4 7 mph 1009.1mb 54f 56f
10:00 6ft 11s 7 9 mph 1009.1mb 53f 56f
9:00 6.5ft 12s 7 9 mph 1009.2mb 52f 55f
8:00 7ft 13s 4 7 mph 1009.1mb 52f 53f
7:00 6ft 14s 4 7 mph 1009.1mb 51f 55f
6:00 6ft 14s 7 9 mph 1008.9mb 52f 55f
5:00 6ft 13s 7
mph
1009.1mb 51f 54f
4:00 6ft 14s 9
mph
1009.5mb 51f 54f
3:00 6ft 14s 7 11 mph 1010.1mb 51f 53f
2:00 6ft 14s 9 11 mph 1010.8mb 51f 54f
1:00 5.5ft 14s 9 11 mph 1011.1mb 51f 54f
12:00 5ft 14s 11 13 mph 1011.4mb 51f 54f
mar 09/16 11:00 5ft 14s 9 13 mph 1011.9mb 51f 54f
10:00 5.5ft 14s 9 13 mph 1011.8mb 51f 53f
9:00 6ft 14s 9 11 mph 1011.9mb 54f 53f
8:00 6ft 13s 9 11 mph 1011.8mb 56f 53f
7:00 6ft 14s 9 13 mph 1012mb 56f 54f
6:00 5.5ft 14s 11 16 mph 1012mb 56f 55f
5:00 6.5ft 14s 9 13 mph 1012.3mb 57f 55f
4:00 6.5ft 13s 11 13 mph 1012.7mb 57f 55f
3:00 6.5ft 14s 13 16 mph 1012.7mb 56f 55f
2:00 6ft 14s 13 18 mph 1013mb 56f 55f
1:00 5ft 14s 16 20 mph 1012.9mb 56f 56f
12:00 4.5ft 14s 13 18 mph 1012.6mb 54f 54f
11:00 4.5ft 15s 13 16 mph 1012.5mb 52f 55f
10:00 4ft 15s 13 16 mph 1012.4mb 52f 55f
9:00 3.5ft 14s 13 16 mph 1011.9mb 54f 55f
8:00 3.5ft 14s 13 16 mph 1012mb 54f 56f
7:00 4ft 14s 13 16 mph 1011.7mb 52f 55f
6:00 3.5ft 10s 11 13 mph 1011.7mb 53f 53f
5:00 3ft 10s 9 11 mph 1011.9mb 55f 54f
4:00 3ft 15s 16 18 mph 1011.4mb 58f 55f
3:00 2.5ft 15s 7 9 mph 1011mb 59f 55f
2:00 2.5ft 15s 9 11 mph 1010.8mb 60f 58f
1:00 2.5ft 15s  -  2 mph 1010.8mb 60f 60f